Aérodrome :
LOGIN :

S'inscrire | Disclaimer

   EN    FR    IT 

 










Légende :    VFR   VFR Marginal   IFR   IFR Intensif   IFR Très Intensif
Visi : 
Plafond : 
>= 8 km
>= 3000ft
5 à 8 km
1000 à 3000 ft
1500m à 5 km
500 à 1000 ft
800 à 1500m
200 à 500 ft
< 800m
< 200 ft
Symboles :   Orages  Brouillard  Fortes neiges  Fortes précipitations  Vent > 20 kt
SIGMETs :   Divers  Orages  Givrage  Turbulence  Onde Orograph.  Cendres Volcan.







- Altitude de l'aérodrome : 1568 ft


ETSB - Büchel AB

DERNIER METAR :
  • 231720Z 23010KT 9999 -RA FEW008 BKN018 BKN025 11/09 Q1009 WHT BLU TEMPO GRN

METARs EXPIRÉS :
  • 231639Z 22012KT 9999 FEW004 BKN020 BKN025 12/08 Q1008 WHT BLU TEMPO GRN
  • 231620Z 22011KT 9999 -DZRA FEW004 BKN010 BKN025 12/07 Q1008 GRN BLU TEMPO GRN
  • 231520Z 23014KT 9999 FEW018 BKN025 BKN040 12/07 Q1007 BLU BLU TEMPO GRN

TAF TAF ETSB
Valide du 23 à 18h jusqu'au 24 à 03h UTC


231728Z 2318/2403 22015G25KT 9999 NSW SCT012 BKN025
BECMG 2318/2320 23010G20KT 8000 NSW FEW006 BKN012
TEMPO 2320/2403 24015G30KT 3000 SHRA BKN006 OVC012 BY ETGL
Pas de NOTAMs connus pour ce terrain.



MET'MAP, la Météo Aéronautique d'un coup d'oeil ! - Copyright ORBIFLY Décembre 2007 - Disclaimer

ORBIFLY MET'MAP TEAM :

Programmation & Développement : Alexandra Zaïnal
Conception & Développement : Baudouin d'Aumeries
Co-Programmation & Développement : Marc-Olivier Méhu
Soutien technique & logistique : Manuel Goepfert

Contact : metmap@orbifly.com




SOURCES & CREDITS :

   NOAA